Time;durP1;ratioP1;P1;durP2;ratioP2;P2;SDS_P1;SDS_P2;PMS_P1;PMS_P2;Temp;Humidity;BMP_temperature;BMP_pressure;BME280_temperature;BME280_humidity;BME280_pressure;Samples;Min_cycle;Max_cycle;Signal;HPM_P1;HPM_P2
2022/05/06 00:01:36;;;;;;;14.95;12.10;;;;;;;8.53;96.54;67722.09;6034572;23;20610;-83
2022/05/06 00:04:02;;;;;;;18.70;10.77;;;;;;;8.46;97.26;67713.59;6033587;23;20589;-83
2022/05/06 00:06:29;;;;;;;16.50;11.93;;;;;;;8.47;96.94;67714.75;6030974;23;20038;-84
2022/05/06 00:08:54;;;;;;;15.43;10.38;;;;;;;8.38;97.04;67707.19;6033253;23;20026;-83
2022/05/06 00:11:20;;;;;;;13.88;10.80;;;;;;;8.39;97.38;67705.69;6032951;23;20362;-83
2022/05/06 00:13:45;;;;;;;17.55;12.05;;;;;;;;;;6033995;23;20023;-83
2022/05/06 00:16:11;;;;;;;15.07;10.50;;;;;;;8.40;96.92;67706.81;6031525;23;20042;-85
2022/05/06 00:18:36;;;;;;;13.77;10.95;;;;;;;8.33;96.93;67700.00;6031069;23;20020;-84
2022/05/06 00:21:01;;;;;;;14.57;10.60;;;;;;;8.34;96.68;67701.13;6034400;23;20394;-84
2022/05/06 00:23:27;;;;;;;14.48;10.38;;;;;;;8.31;97.43;67699.81;6033234;23;20019;-84
2022/05/06 00:25:52;;;;;;;14.27;10.20;;;;;;;8.27;97.17;67695.28;6032520;23;20027;-83
2022/05/06 00:28:18;;;;;;;16.95;10.73;;;;;;;8.19;97.71;67684.13;6034604;23;20042;-84
2022/05/06 00:30:43;;;;;;;14.73;11.27;;;;;;;8.15;98.13;67679.59;6036487;23;20016;-85
2022/05/06 00:33:09;;;;;;;16.67;11.15;;;;;;;8.14;98.08;67683.75;6035260;23;20811;-85
2022/05/06 00:35:38;;;;;;;17.90;11.00;;;;;;;8.14;98.00;67678.47;6035125;23;20350;-84
2022/05/06 00:38:04;;;;;;;16.73;11.13;;;;;;;8.13;97.65;67677.91;6036904;23;20026;-84
2022/05/06 00:40:29;;;;;;;16.42;11.60;;;;;;;8.19;97.39;67692.09;6012691;23;20015;-84
2022/05/06 00:42:56;;;;;;;15.48;11.27;;;;;;;8.15;98.57;67679.59;6014811;23;20037;-83
2022/05/06 00:45:22;;;;;;;15.82;11.57;;;;;;;8.25;97.41;67693.56;6029418;23;20047;-84
2022/05/06 00:47:48;;;;;;;16.30;11.35;;;;;;;;;;6050648;23;20038;-83
2022/05/06 00:50:14;;;;;;;15.18;11.00;;;;;;;8.25;96.65;67696.22;6036383;23;20361;-83
2022/05/06 00:52:39;;;;;;;13.52;10.45;;;;;;;8.23;96.59;67688.69;6036729;23;20032;-83
2022/05/06 00:55:06;;;;;;;12.75;10.35;;;;;;;8.35;96.69;67704.91;6033841;23;20056;-83
2022/05/06 00:57:31;;;;;;;18.17;10.98;;;;;;;8.33;95.71;67700.00;6036300;23;20191;-83
2022/05/06 01:02:42;;;;;;;14.15;10.82;;;;;;;8.20;95.65;67687.94;6037030;23;20159;-83
2022/05/06 01:05:09;;;;;;;16.63;10.98;;;;;;;8.18;96.12;67683.00;6016652;23;20060;-83
2022/05/06 01:07:36;;;;;;;14.82;10.98;;;;;;;8.11;96.27;67675.06;6062525;23;20109;-83
2022/05/06 01:10:02;;;;;;;16.42;11.23;;;;;;;7.97;97.29;67664.50;6074247;23;20022;-83
2022/05/06 01:12:27;;;;;;;16.98;11.82;;;;;;;7.88;97.74;67652.25;6066213;23;20054;-83
2022/05/06 01:14:52;;;;;;;16.88;11.80;;;;;;;;;;6062474;23;20022;-85
2022/05/06 01:17:18;;;;;;;16.83;11.63;;;;;;;7.82;98.39;67642.81;6062150;23;20042;-84
2022/05/06 01:19:43;;;;;;;14.80;11.32;;;;;;;7.80;98.48;67640.56;6063657;23;20271;-84
2022/05/06 01:22:08;;;;;;;16.58;10.85;;;;;;;7.77;98.11;67643.00;6064673;23;20014;-84
2022/05/06 01:24:34;;;;;;;17.92;11.95;;;;;;;7.76;98.17;67639.22;6067581;23;20082;-84
2022/05/06 01:27:28;;;;;;;18.40;12.05;;;;;;;7.73;98.88;67632.63;6063381;23;20025;-84
2022/05/06 01:29:55;;;;;;;17.33;12.50;;;;;;;7.68;99.12;67633.38;6033455;23;20492;-84
2022/05/06 01:32:22;;;;;;;18.33;12.85;;;;;;;7.64;98.70;67628.28;6061739;23;20027;-83
2022/05/06 01:34:49;;;;;;;17.52;11.85;;;;;;;7.59;98.88;67623.19;6064287;23;20365;-83
2022/05/06 01:37:17;;;;;;;17.77;11.80;;;;;;;7.59;98.74;67623.19;6062855;23;20029;-83
2022/05/06 01:39:48;;;;;;;15.45;11.80;;;;;;;7.65;98.79;67624.13;6061232;23;20105;-84
2022/05/06 01:42:17;;;;;;;16.05;12.30;;;;;;;7.62;98.66;67620.72;6063172;23;20025;-85
2022/05/06 01:44:43;;;;;;;16.35;11.90;;;;;;;;;;6064037;23;20097;-84
2022/05/06 01:47:16;;;;;;;15.45;12.27;;;;;;;7.60;98.87;67621.69;6062919;23;20019;-84
2022/05/06 01:49:43;;;;;;;15.02;11.63;;;;;;;7.58;98.38;67621.50;6064171;23;20409;-83
2022/05/06 01:52:14;;;;;;;14.48;11.75;;;;;;;7.58;97.92;67618.84;6061599;23;20409;-84
2022/05/06 01:54:39;;;;;;;16.95;12.10;;;;;;;7.54;97.76;67612.25;6063464;23;20040;-83
2022/05/06 01:57:05;;;;;;;16.77;12.25;;;;;;;7.52;98.27;67614.72;6063174;23;20022;-84
2022/05/06 01:59:31;;;;;;;19.65;12.63;;;;;;;7.42;98.92;67603.94;6061337;23;20023;-83
2022/05/06 02:01:56;;;;;;;20.27;13.15;;;;;;;7.36;99.59;67592.41;6063320;23;20019;-83
2022/05/06 02:07:05;;;;;;;16.65;13.00;;;;;;;7.22;100.00;67579.81;6063595;23;20030;-83
2022/05/06 02:09:31;;;;;;;17.27;12.68;;;;;;;7.22;100.00;67579.22;6064720;23;20018;-83
2022/05/06 02:11:56;;;;;;;18.67;13.45;;;;;;;7.19;100.00;67576.41;6064062;23;20015;-83
2022/05/06 02:14:21;;;;;;;17.65;12.77;;;;;;;7.19;100.00;67579.06;6066274;23;20015;-84
2022/05/06 02:16:47;;;;;;;18.90;13.07;;;;;;;7.15;100.00;67573.97;6065480;23;20022;-82
2022/05/06 02:19:13;;;;;;;19.92;13.77;;;;;;;7.12;100.00;67565.28;6063719;23;20018;-85
2022/05/06 02:21:39;;;;;;;20.70;12.18;;;;;;;7.11;100.00;67569.44;6066354;23;20646;-83
2022/05/06 02:24:04;;;;;;;17.80;12.98;;;;;;;7.09;100.00;67565.09;6065144;23;20026;-83
2022/05/06 02:26:29;;;;;;;17.52;12.82;;;;;;;7.06;100.00;67563.78;6062682;23;20453;-83
2022/05/06 02:28:55;;;;;;;18.45;13.73;;;;;;;7.05;100.00;67563.22;6065932;23;20022;-83
2022/05/06 02:34:04;;;;;;;18.60;14.38;;;;;;;6.98;100.00;67550.56;6064566;23;20033;-83
2022/05/06 02:36:30;;;;;;;19.77;13.68;;;;;;;6.92;100.00;67543.78;6061445;23;20015;-84
2022/05/06 02:38:55;;;;;;;18.63;13.85;;;;;;;6.92;100.00;67543.22;6063728;23;20021;-84
2022/05/06 02:41:20;;;;;;;18.98;13.80;;;;;;;6.93;100.00;67547.56;6062561;23;20453;-84
2022/05/06 02:43:46;;;;;;;21.05;14.18;;;;;;;6.92;100.00;67543.22;6062910;23;20102;-84
2022/05/06 02:46:11;;;;;;;18.60;13.63;;;;;;;6.87;100.00;67540.19;6060322;23;20015;-85
2022/05/06 02:48:36;;;;;;;18.55;13.40;;;;;;;6.84;100.00;67539.44;6061944;23;20023;-85
2022/05/06 02:51:02;;;;;;;17.38;13.77;;;;;;;6.82;100.00;67537.19;6062102;23;20015;-84
2022/05/06 02:53:27;;;;;;;17.48;12.93;;;;;;;6.79;100.00;67534.38;6062940;23;20011;-84
2022/05/06 02:55:53;;;;;;;19.02;13.63;;;;;;;6.80;100.00;67530.19;6063245;23;20074;-85
2022/05/06 02:58:18;;;;;;;17.90;13.27;;;;;;;6.82;100.00;67537.75;6059562;23;20018;-83
2022/05/06 03:00:43;;;;;;;17.70;13.70;;;;;;;6.80;100.00;67532.84;6064102;23;20022;-84
2022/05/06 03:03:09;;;;;;;19.73;14.20;;;;;;;6.79;100.00;67529.06;6062493;23;20015;-84
2022/05/06 03:05:34;;;;;;;19.08;14.55;;;;;;;6.72;100.00;67524.34;6052293;23;20051;-84
2022/05/06 03:08:00;;;;;;;20.58;14.82;;;;;;;6.69;100.00;67520.41;6035557;23;20474;-86
2022/05/06 03:10:25;;;;;;;21.92;14.50;;;;;;;;;;6031793;23;20104;-84
2022/05/06 03:12:55;;;;;;;18.48;14.10;;;;;;;6.61;100.00;67508.72;6034716;23;20095;-84
2022/05/06 03:15:21;;;;;;;20.67;14.43;;;;;;;6.62;100.00;67515.13;6031097;23;20019;-85
2022/05/06 03:17:46;;;;;;;20.92;14.00;;;;;;;6.61;100.00;67509.28;6034790;23;20019;-84
2022/05/06 03:20:12;;;;;;;19.67;13.30;;;;;;;;;;6034699;23;20019;-84
2022/05/06 03:22:42;;;;;;;19.40;14.10;;;;;;;6.62;100.00;67515.13;6033256;23;20019;-83
2022/05/06 03:25:10;;;;;;;18.60;14.32;;;;;;;6.63;100.00;67513.63;6008917;23;20023;-82
2022/05/06 03:30:20;;;;;;;20.67;15.05;;;;;;;6.52;100.00;67504.38;6032702;23;20025;-81
2022/05/06 03:32:46;;;;;;;20.85;15.20;;;;;;;6.53;100.00;67508.72;6033901;23;20035;-83
2022/05/06 03:35:11;;;;;;;21.60;14.43;;;;;;;6.55;100.00;67505.69;6033431;23;20015;-81
2022/05/06 03:37:38;;;;;;;20.92;15.85;;;;;;;6.59;100.00;67511.72;6035239;23;20114;-82
2022/05/06 03:40:05;;;;;;;20.83;15.77;;;;;;;6.55;100.00;67503.03;6009217;23;20019;-82
2022/05/06 03:42:30;;;;;;;18.45;14.10;;;;;;;6.54;100.00;67504.56;6032325;23;20015;-82
2022/05/06 03:44:55;;;;;;;20.83;15.82;;;;;;;6.55;100.00;67507.78;6033927;23;20115;-82
2022/05/06 03:47:21;;;;;;;19.48;15.45;;;;;;;6.51;100.00;67498.53;6036209;23;20017;-81
2022/05/06 03:51:20;;;;;;;19.58;15.50;;;;;;;6.49;100.00;67498.34;6036475;23;20015;-82
2022/05/06 03:52:34;;;;;;;18.83;13.95;;;;;;;6.46;100.00;67498.16;6038524;23;20039;-81
2022/05/06 03:54:59;;;;;;;20.17;15.20;;;;;;;6.50;100.00;67499.47;6037814;23;20506;-81
2022/05/06 03:57:24;;;;;;;19.27;14.32;;;;;;;6.45;100.00;67497.03;6036869;23;20106;-81
2022/05/06 03:59:50;;;;;;;20.83;14.98;;;;;;;6.47;100.00;67499.31;6040033;23;20078;-82
2022/05/06 04:02:15;;;;;;;21.10;14.32;;;;;;;6.50;100.00;67502.69;6037114;23;20015;-83
2022/05/06 04:04:42;;;;;;;21.92;14.32;;;;;;;6.46;100.00;67495.50;6013375;23;20098;-82
2022/05/06 04:07:07;;;;;;;23.60;15.32;;;;;;;6.47;100.00;67494.00;6037769;23;20115;-82
2022/05/06 04:09:32;;;;;;;20.88;15.40;;;;;;;6.41;100.00;67489.28;6043459;23;20023;-81
2022/05/06 04:11:59;;;;;;;23.20;15.30;;;;;;;6.41;100.00;67489.84;6048058;23;20050;-79
2022/05/06 04:14:25;;;;;;;20.45;14.88;;;;;;;6.40;100.00;67485.53;6041201;23;20019;-81
2022/05/06 04:16:50;;;;;;;21.80;15.27;;;;;;;6.44;100.00;67495.88;6032368;23;20050;-80
2022/05/06 04:19:16;;;;;;;24.27;15.68;;;;;;;6.45;100.00;67494.38;6033288;23;20493;-81
2022/05/06 04:24:25;;;;;;;21.42;15.73;;;;;;;6.48;100.00;67497.78;6032389;23;20114;-82
2022/05/06 04:26:51;;;;;;;20.13;15.23;;;;;;;6.45;100.00;67494.38;6038847;23;20019;-80
2022/05/06 04:29:16;;;;;;;22.70;15.57;;;;;;;6.49;100.00;67498.91;6017092;23;20044;-81
2022/05/06 04:31:42;;;;;;;25.05;16.30;;;;;;;6.50;100.00;67500.06;6019896;23;20043;-78
2022/05/06 04:34:07;;;;;;;21.90;15.43;;;;;;;6.53;100.00;67505.50;6016640;23;20093;-81
2022/05/06 04:36:32;;;;;;;23.17;17.33;;;;;;;6.53;100.00;67502.84;6043146;23;20034;-82
2022/05/06 04:38:58;;;;;;;24.50;18.02;;;;;;;6.54;100.00;67507.22;6042478;23;20358;-81
2022/05/06 04:41:24;;;;;;;28.27;18.50;;;;;;;6.58;100.00;67510.59;6040509;23;20015;-82
2022/05/06 04:43:50;;;;;;;25.30;17.83;;;;;;;6.61;100.00;67511.34;6013461;23;20019;-82
2022/05/06 04:46:15;;;;;;;26.10;18.55;;;;;;;6.63;100.00;67513.63;6011750;23;20708;-81
2022/05/06 04:48:40;;;;;;;25.45;17.52;;;;;;;6.63;100.00;67511.53;6036173;23;20453;-81
2022/05/06 04:51:06;;;;;;;27.48;17.98;;;;;;;6.71;100.00;67522.66;6009204;23;20079;-81
2022/05/06 04:53:31;;;;;;;28.20;18.35;;;;;;;6.75;100.00;67524.53;6006652;23;20853;-81
2022/05/06 04:55:57;;;;;;;28.42;18.70;;;;;;;6.80;100.00;67532.84;6032313;23;20098;-81
2022/05/06 04:58:23;;;;;;;27.63;19.05;;;;;;;6.83;100.00;67535.69;6011319;23;20046;-82
2022/05/06 05:00:48;;;;;;;26.50;19.35;;;;;;;6.91;100.00;67542.66;6036808;23;20019;-82
2022/05/06 05:03:14;;;;;;;30.17;19.35;;;;;;;6.97;100.00;67548.88;6036733;23;20034;-81
2022/05/06 05:05:40;;;;;;;25.52;18.33;;;;;;;7.02;100.00;67557.19;6034901;23;20075;-81
2022/05/06 05:08:08;;;;;;;27.00;18.10;;;;;;;7.13;100.00;67569.59;6035248;23;20034;-81
2022/05/06 05:10:33;;;;;;;27.65;18.63;;;;;;;7.27;100.00;67582.25;6009277;23;20039;-82
2022/05/06 05:12:58;;;;;;;25.42;17.80;;;;;;;7.42;100.00;67604.53;6038925;23;20022;-81
2022/05/06 05:15:24;;;;;;;27.48;18.50;;;;;;;7.47;100.00;67604.31;6035818;23;20030;-81
2022/05/06 05:17:49;;;;;;;29.17;18.20;;;;;;;7.60;100.00;67618.47;6034332;23;20043;-81
2022/05/06 05:20:15;;;;;;;24.63;17.70;;;;;;;7.75;100.00;67637.53;6008733;23;20064;-81
2022/05/06 05:22:41;;;;;;;25.95;17.45;;;;;;;7.88;100.00;67655.47;6035582;23;20471;-82
2022/05/06 05:25:08;;;;;;;29.73;19.30;;;;;;;7.99;100.00;67661.47;6034167;23;20027;-81
2022/05/06 05:27:36;;;;;;;30.30;19.48;;;;;;;8.11;100.00;67675.66;6034672;23;20015;-81
2022/05/06 05:30:04;;;;;;;32.97;22.98;;;;;;;8.23;100.00;67693.41;6010519;23;20053;-81
2022/05/06 05:32:31;;;;;;;32.77;20.30;;;;;;;8.38;100.00;67704.53;6033655;23;20053;-81
2022/05/06 05:34:56;;;;;;;38.47;25.90;;;;;;;8.58;100.00;67732.50;6033846;23;20370;-82
2022/05/06 05:37:22;;;;;;;37.95;25.33;;;;;;;;;;6034562;23;20040;-81
2022/05/06 05:39:47;;;;;;;53.90;35.58;;;;;;;;;;6034097;23;20722;-81
2022/05/06 05:42:20;;;;;;;53.60;36.80;;;;;;;8.93;100.00;67768.38;6036370;23;20086;-80
2022/05/06 05:50:13;;;;;;;56.33;37.20;;;;;;;9.14;100.00;67792.19;6034863;23;20354;-81
2022/05/06 05:52:38;;;;;;;55.20;38.65;;;;;;;9.24;100.00;67800.88;6034863;23;20015;-81
2022/05/06 05:55:04;;;;;;;55.88;37.47;;;;;;;9.31;100.00;67808.22;6034976;23;20012;-81
2022/05/06 05:57:29;;;;;;;54.75;35.53;;;;;;;9.39;100.00;67817.31;6036522;23;20019;-80
2022/05/06 05:59:55;;;;;;;49.45;36.00;;;;;;;9.48;100.00;67829.59;6031703;23;20620;-81
2022/05/06 06:02:20;;;;;;;54.25;36.30;;;;;;;9.55;100.00;67837.53;6032532;23;20054;-81
2022/05/06 06:04:46;;;;;;;53.33;36.67;;;;;;;9.60;100.00;67840.53;6036506;23;20023;-81
2022/05/06 06:07:11;;;;;;;52.42;31.60;;;;;;;9.67;100.00;67848.47;6035246;23;20455;-81
2022/05/06 06:09:37;;;;;;;51.40;35.15;;;;;;;9.74;100.00;67855.28;6035430;23;20035;-81
2022/05/06 06:12:02;;;;;;;51.90;35.83;;;;;;;9.83;100.00;67868.16;6037951;23;20698;-81
2022/05/06 06:14:28;;;;;;;48.72;32.13;;;;;;;9.94;100.00;67878.53;6036483;23;20082;-81
2022/05/06 06:16:53;;;;;;;51.25;31.80;;;;;;;10.07;100.00;67892.13;6036473;23;20039;-80
2022/05/06 06:19:18;;;;;;;46.80;30.48;;;;;;;10.21;100.00;67908.03;6040106;23;20050;-80
2022/05/06 06:21:44;;;;;;;49.92;33.67;;;;;;;10.27;100.00;67916.94;6042694;23;20519;-81
2022/05/06 06:24:10;;;;;;;45.75;32.65;;;;;;;10.31;100.00;67918.84;6041770;23;20034;-81
2022/05/06 06:26:35;;;;;;;47.45;32.08;;;;;;;;;;6034841;23;20057;-80
2022/05/06 06:29:02;;;;;;;46.53;28.58;;;;;;;10.44;97.99;67936.22;6010060;23;20011;-81
2022/05/06 06:31:30;;;;;;;48.55;31.38;;;;;;;10.55;98.77;67945.50;6034514;23;20079;-80
2022/05/06 06:33:56;;;;;;;43.72;30.77;;;;;;;10.59;98.53;67950.59;6033140;23;20022;-81
2022/05/06 06:36:22;;;;;;;44.40;30.55;;;;;;;10.69;97.83;67960.81;6034878;23;20458;-81
2022/05/06 06:38:47;;;;;;;42.38;28.73;;;;;;;10.75;97.44;67972.94;6008445;23;20024;-80
2022/05/06 06:41:13;;;;;;;42.08;28.85;;;;;;;10.86;96.85;67980.09;6034693;23;20026;-80
2022/05/06 06:43:38;;;;;;;45.20;30.13;;;;;;;10.95;97.75;67985.00;6034917;23;20078;-80
2022/05/06 06:46:06;;;;;;;43.20;29.02;;;;;;;;;;6031246;23;20022;-81
2022/05/06 06:48:32;;;;;;;41.60;28.25;;;;;;;11.14;96.50;68010.78;6033471;23;20042;-80
2022/05/06 06:50:58;;;;;;;41.45;28.05;;;;;;;;;;6009298;23;20224;-80
2022/05/06 06:53:24;;;;;;;39.65;28.15;;;;;;;11.43;95.84;68043.13;6034594;23;20446;-81
2022/05/06 06:55:49;;;;;;;39.25;27.35;;;;;;;;;;6033259;23;20363;-80
2022/05/06 06:58:15;;;;;;;41.33;26.10;;;;;;;11.72;93.83;68075.50;6035549;23;20039;-81
2022/05/06 07:00:42;;;;;;;39.20;24.98;;;;;;;11.86;92.43;68091.41;6036596;23;20123;-80
2022/05/06 07:03:08;;;;;;;41.47;24.20;;;;;;;;;;6037042;23;20022;-81
2022/05/06 07:05:33;;;;;;;41.65;25.42;;;;;;;12.12;91.48;68119.81;6034678;23;20031;-81
2022/05/06 07:13:28;;;;;;;39.88;27.60;;;;;;;12.54;90.01;68166.41;6035294;23;20022;-81
2022/05/06 07:15:53;;;;;;;35.30;24.05;;;;;;;12.66;88.71;68174.72;6011438;23;20070;-80
2022/05/06 07:18:19;;;;;;;39.60;24.70;;;;;;;;;;6035666;23;20039;-80
2022/05/06 07:20:44;;;;;;;42.28;24.65;;;;;;;13.00;86.71;68217.56;6011356;23;20038;-80
2022/05/06 07:23:10;;;;;;;36.45;24.60;;;;;;;;;;6037589;23;20030;-80
2022/05/06 07:25:36;;;;;;;37.90;24.40;;;;;;;13.14;85.66;68228.13;6034857;23;20048;-80
2022/05/06 07:28:01;;;;;;;37.65;25.38;;;;;;;;;;6036438;23;20016;-80
2022/05/06 07:30:27;;;;;;;37.78;26.45;;;;;;;13.27;85.17;68247.72;6037050;23;20500;-81
2022/05/06 07:32:52;;;;;;;37.45;23.17;;;;;;;;;;6036028;23;20031;-81
2022/05/06 07:35:17;;;;;;;38.10;25.33;;;;;;;13.64;85.19;68283.34;6009943;23;20015;-81
2022/05/06 07:37:42;;;;;;;38.72;27.92;;;;;;;;;;6039528;23;20252;-80
2022/05/06 07:40:11;;;;;;;38.45;26.55;;;;;;;13.83;83.47;68310.28;6041413;23;20023;-80
2022/05/06 07:42:38;;;;;;;41.25;26.23;;;;;;;14.00;83.38;68329.63;6040483;23;20075;-80
2022/05/06 07:45:04;;;;;;;41.58;26.88;;;;;;;14.07;83.09;68337.03;6034114;23;20026;-80
2022/05/06 07:47:30;;;;;;;39.15;24.92;;;;;;;14.14;81.92;68344.44;6035221;23;20015;-80
2022/05/06 07:49:55;;;;;;;39.97;28.25;;;;;;;;;;6037013;23;20015;-80
2022/05/06 07:52:21;;;;;;;41.60;29.25;;;;;;;;;;6035422;23;20740;-80
2022/05/06 07:54:46;;;;;;;40.38;24.83;;;;;;;;;;6035814;23;20079;-80
2022/05/06 07:57:11;;;;;;;38.00;28.77;;;;;;;;;;6036129;23;20570;-80
2022/05/06 07:59:36;;;;;;;39.90;28.00;;;;;;;;;;6034819;23;20699;-80
2022/05/06 08:04:48;;;;;;;39.42;27.38;;;;;;;;;;6035607;23;20094;-80
2022/05/06 08:07:14;;;;;;;40.28;25.83;;;;;;;15.06;79.16;68446.94;6012006;23;20023;-80
2022/05/06 08:09:39;;;;;;;39.40;22.67;;;;;;;15.14;78.89;68450.13;6035454;23;20326;-79
2022/05/06 08:12:05;;;;;;;36.85;22.92;;;;;;;15.22;78.83;68467.25;6036636;23;20103;-80
2022/05/06 08:14:31;;;;;;;40.33;27.13;;;;;;;15.20;78.45;68462.31;6033707;23;20453;-80
2022/05/06 08:16:56;;;;;;;40.67;26.65;;;;;;;15.30;78.55;68473.69;6033175;23;20071;-80
2022/05/06 08:19:22;;;;;;;37.30;27.48;;;;;;;15.40;77.76;68487.78;6035026;23;20020;-80
2022/05/06 08:21:48;;;;;;;33.10;24.33;;;;;;;15.65;77.67;68507.63;6036079;23;20022;-80
2022/05/06 08:24:13;;;;;;;34.83;24.65;;;;;;;15.66;76.79;68505.53;6035144;23;20026;-80
2022/05/06 08:26:39;;;;;;;32.08;19.17;;;;;;;15.66;74.75;68516.25;6035099;23;20086;-80
2022/05/06 08:29:04;;;;;;;30.75;18.58;;;;;;;15.62;75.27;68500.94;6036121;23;20454;-80
2022/05/06 08:31:37;;;;;;;25.30;17.42;;;;;;;15.67;73.54;68509.91;6033033;23;20011;-80
2022/05/06 08:34:02;;;;;;;31.42;21.65;;;;;;;;;;6038319;23;20065;-80
2022/05/06 08:36:28;;;;;;;33.45;22.50;;;;;;;15.87;74.68;68532.16;6035465;23;20019;-80
2022/05/06 08:38:53;;;;;;;28.92;21.63;;;;;;;15.92;74.39;68542.66;6010608;23;20023;-80
2022/05/06 08:41:19;;;;;;;31.05;21.75;;;;;;;16.01;73.80;68548.09;6034701;23;20019;-80
2022/05/06 08:43:44;;;;;;;28.15;20.58;;;;;;;;;;6035296;23;20098;-79
2022/05/06 08:51:40;;;;;;;30.20;19.55;;;;;;;16.25;72.78;68574.31;6035720;23;20025;-81
2022/05/06 08:54:05;;;;;;;32.20;20.52;;;;;;;16.30;72.44;68580.00;6036663;23;20155;-80
2022/05/06 08:56:31;;;;;;;30.08;18.40;;;;;;;16.39;72.40;68595.09;6035299;23;20043;-80
2022/05/06 08:58:58;;;;;;;33.08;21.25;;;;;;;16.29;72.44;68578.88;6036997;23;20024;-81
2022/05/06 09:01:25;;;;;;;31.00;22.40;;;;;;;16.30;72.47;68585.38;6035939;23;20022;-81
2022/05/06 09:03:50;;;;;;;28.50;20.10;;;;;;;16.40;72.16;68591.44;6035527;23;20039;-81
2022/05/06 09:06:17;;;;;;;32.53;21.13;;;;;;;;;;6036828;23;20334;-81
2022/05/06 09:08:42;;;;;;;32.17;22.42;;;;;;;;;;6035135;23;20026;-81
2022/05/06 09:11:08;;;;;;;36.03;23.38;;;;;;;16.71;72.12;68631.00;6037254;23;20015;-81
2022/05/06 09:13:48;;;;;;;35.05;21.15;;;;;;;16.71;72.02;68625.63;6036944;23;20074;-81
2022/05/06 09:19:10;;;;;;;25.92;17.55;;;;;;;16.73;70.17;68627.34;6037997;23;20092;-81
2022/05/06 09:21:37;;;;;;;27.45;19.67;;;;;;;16.76;70.76;68639.41;6034814;23;20015;-81
2022/05/06 09:24:16;;;;;;;27.80;19.20;;;;;;;;;;6037025;23;20521;-81
2022/05/06 09:26:55;;;;;;;26.90;17.80;;;;;;;17.03;69.36;68666.38;6036533;23;20091;-81
2022/05/06 09:29:47;;;;;;;26.30;18.48;;;;;;;16.95;70.03;68651.88;6037493;23;20062;-81
2022/05/06 09:32:12;;;;;;;25.73;17.83;;;;;;;;;;6037762;23;20019;-81
2022/05/06 09:34:38;;;;;;;18.10;11.37;;;;;;;16.93;66.17;68655.53;6036823;23;20030;-81
2022/05/06 09:37:03;;;;;;;20.23;14.52;;;;;;;16.94;66.91;68656.09;6035533;23;20015;-80
2022/05/06 09:39:28;;;;;;;20.35;15.63;;;;;;;;;;6037228;23;20090;-80
2022/05/06 09:42:03;;;;;;;18.27;12.57;;;;;;;17.15;66.60;68674.69;6036576;23;20498;-81
2022/05/06 09:44:29;;;;;;;20.30;14.60;;;;;;;17.07;66.60;68665.56;6038458;23;20025;-81
2022/05/06 09:47:11;;;;;;;17.13;13.15;;;;;;;17.13;66.92;68667.03;6036792;23;20075;-81
2022/05/06 09:49:37;;;;;;;17.17;10.73;;;;;;;;;;6036279;23;20011;-81
2022/05/06 09:52:12;;;;;;;22.38;13.50;;;;;;;;;;6037877;23;20034;-81
2022/05/06 09:54:41;;;;;;;21.02;14.45;;;;;;;17.32;65.61;68699.47;6037771;23;20042;-81
2022/05/06 09:57:07;;;;;;;22.40;13.15;;;;;;;;;;6038267;23;20353;-81
2022/05/06 09:59:34;;;;;;;15.38;10.27;;;;;;;17.34;64.59;68690.97;6012744;23;20019;-81
2022/05/06 10:02:00;;;;;;;19.65;13.63;;;;;;;;;;6039538;23;20026;-81
2022/05/06 10:04:25;;;;;;;19.75;13.02;;;;;;;17.31;65.14;68692.94;6038823;23;20015;-81
2022/05/06 10:06:51;;;;;;;17.63;14.32;;;;;;;;;;6038997;23;20174;-81
2022/05/06 10:09:19;;;;;;;18.10;13.57;;;;;;;;;;6040151;23;20046;-81
2022/05/06 10:11:44;;;;;;;23.98;15.75;;;;;;;;;;6038515;23;20409;-80
2022/05/06 10:14:09;;;;;;;20.80;15.80;;;;;;;;;;6036247;23;20020;-81
2022/05/06 10:16:35;;;;;;;21.88;14.98;;;;;;;;;;6035331;23;20023;-81
2022/05/06 10:19:01;;;;;;;20.90;15.70;;;;;;;;;;6035943;23;20529;-81
2022/05/06 10:21:45;;;;;;;20.08;16.02;;;;;;;;;;6036019;23;20039;-81
2022/05/06 10:24:15;;;;;;;18.95;14.20;;;;;;;17.81;64.33;68748.88;6035241;23;20030;-81
2022/05/06 10:26:43;;;;;;;21.92;16.25;;;;;;;17.89;63.97;68754.16;6034767;23;20023;-81
2022/05/06 10:32:25;;;;;;;18.35;14.20;;;;;;;18.16;64.88;68787.13;6012198;23;20025;-80
2022/05/06 10:35:05;;;;;;;20.85;12.98;;;;;;;18.36;63.00;68809.94;5992346;23;20027;-80
2022/05/06 10:37:43;;;;;;;20.02;15.02;;;;;;;18.32;62.36;68802.69;6011781;23;20048;-80
2022/05/06 10:40:24;;;;;;;18.00;11.50;;;;;;;18.41;60.41;68815.06;6038604;23;20023;-80
2022/05/06 10:42:50;;;;;;;14.88;9.77;;;;;;;18.44;59.28;68815.81;6062324;23;20070;-81
2022/05/06 10:45:46;;;;;;;16.67;9.98;;;;;;;18.52;60.13;68827.06;6039145;23;20469;-81
2022/05/06 10:48:19;;;;;;;18.15;13.75;;;;;;;18.50;61.83;68825.38;6034763;23;20023;-81
2022/05/06 10:50:44;;;;;;;17.67;11.73;;;;;;;18.55;60.83;68831.06;6037305;23;20023;-81
2022/05/06 10:53:34;;;;;;;16.55;11.73;;;;;;;18.61;60.18;68835.22;6038408;23;20011;-80
2022/05/06 10:55:59;;;;;;;16.67;12.18;;;;;;;18.50;60.47;68830.75;6037792;23;20042;-81
2022/05/06 10:58:24;;;;;;;14.45;10.55;;;;;;;18.91;60.90;68871.06;6038084;23;20030;-81
2022/05/06 11:00:58;;;;;;;14.52;11.18;;;;;;;19.15;57.40;68895.78;6013319;23;20019;-80
2022/05/06 11:03:24;;;;;;;12.77;9.77;;;;;;;18.90;58.80;68867.81;6038183;23;20023;-80
2022/05/06 11:05:50;;;;;;;14.15;9.15;;;;;;;;;;6040281;23;20379;-80
2022/05/06 11:08:19;;;;;;;15.95;11.45;;;;;;;18.96;58.29;68876.19;6046304;23;20468;-80
2022/05/06 11:10:45;;;;;;;13.77;9.90;;;;;;;19.07;57.64;68894.72;6040961;23;20061;-80
2022/05/06 11:13:10;;;;;;;15.13;11.50;;;;;;;18.79;57.91;68857.94;6039427;23;20028;-81
2022/05/06 11:15:37;;;;;;;14.00;10.60;;;;;;;18.80;57.88;68859.06;6036614;23;20016;-80
2022/05/06 11:18:05;;;;;;;10.68;7.18;;;;;;;18.75;54.81;68853.34;6038986;23;20362;-81
2022/05/06 11:20:33;;;;;;;9.57;6.88;;;;;;;18.75;55.93;68850.66;6039136;23;20024;-80
2022/05/06 11:23:05;;;;;;;13.47;9.20;;;;;;;19.02;56.97;68880.94;6039450;23;20019;-81
2022/05/06 11:25:57;;;;;;;12.63;8.77;;;;;;;;;;6012924;23;20076;-80
2022/05/06 11:28:24;;;;;;;12.57;7.68;;;;;;;19.15;53.20;68898.47;6034868;23;20020;-81
2022/05/06 11:30:51;;;;;;;10.98;7.13;;;;;;;19.02;54.71;68880.94;6010321;23;20035;-80
2022/05/06 11:33:24;;;;;;;10.43;6.38;;;;;;;18.92;54.79;68872.19;6039652;23;20445;-81
2022/05/06 11:35:51;;;;;;;13.57;9.05;;;;;;;19.02;57.37;68880.94;6038092;23;20035;-80
2022/05/06 11:38:37;;;;;;;11.10;8.07;;;;;;;18.99;54.98;68885.59;6037965;23;20143;-81
2022/05/06 11:41:14;;;;;;;8.85;6.03;;;;;;;19.07;54.19;68888.75;6039119;23;20027;-80
2022/05/06 11:43:41;;;;;;;9.13;6.40;;;;;;;19.20;54.73;68903.03;6012665;23;20075;-81
2022/05/06 11:48:57;;;;;;;12.05;9.38;;;;;;;19.61;56.12;68947.19;6016764;23;20070;-81
2022/05/06 11:51:24;;;;;;;10.73;8.85;;;;;;;;;;6037985;23;20449;-80
2022/05/06 11:53:51;;;;;;;11.60;8.70;;;;;;;19.68;54.48;68956.75;6038353;23;20019;-81
2022/05/06 11:56:25;;;;;;;11.25;8.93;;;;;;;19.68;55.03;68954.06;6012808;23;20426;-81
2022/05/06 11:58:53;;;;;;;10.02;7.95;;;;;;;19.55;56.11;68943.03;6013905;23;20625;-81
2022/05/06 12:01:30;;;;;;;10.35;7.45;;;;;;;19.45;55.03;68931.03;6013754;23;20011;-80
2022/05/06 12:03:59;;;;;;;10.82;6.88;;;;;;;19.32;55.04;68917.31;6039990;23;20027;-80
2022/05/06 12:06:28;;;;;;;9.43;7.72;;;;;;;19.27;55.79;68911.59;6038298;23;20449;-81
2022/05/06 12:09:17;;;;;;;8.85;7.93;;;;;;;19.54;55.90;68941.91;6014434;23;20346;-80
2022/05/06 12:11:43;;;;;;;8.90;6.93;;;;;;;;;;6038098;23;20205;-81
2022/05/06 12:14:13;;;;;;;8.70;6.55;;;;;;;20.20;54.49;69015.63;6036200;23;20023;-82
2022/05/06 12:16:52;;;;;;;9.50;6.30;;;;;;;;;;6034051;23;20107;-82
2022/05/06 12:19:18;;;;;;;8.77;6.18;;;;;;;20.47;51.12;69045.38;6037262;23;20026;-81
2022/05/06 12:21:43;;;;;;;8.73;6.72;;;;;;;20.65;51.26;69065.97;6036350;23;20024;-81
2022/05/06 12:24:08;;;;;;;7.63;6.10;;;;;;;20.43;48.75;69035.97;6010327;23;20022;-82
2022/05/06 12:26:35;;;;;;;8.48;4.55;;;;;;;;;;6035272;23;20019;-82